Time;durP1;ratioP1;P1;durP2;ratioP2;P2;SDS_P1;SDS_P2;PMS_P1;PMS_P2;Temp;Humidity;BMP_temperature;BMP_pressure;BME280_temperature;BME280_humidity;BME280_pressure;Samples;Min_cycle;Max_cycle;Signal;HPM_P1;HPM_P2
2020/12/14 00:00:18;;;;;;;13.98;6.87;;;;;;;1.42;90.44;97083.76;1833415;78;20965;-74
2020/12/14 00:02:45;;;;;;;12.20;6.00;;;;;;;1.43;90.42;97080.28;1833334;78;20941;-74
2020/12/14 00:05:14;;;;;;;13.13;7.92;;;;;;;1.43;90.39;97080.28;1833303;78;20925;-73
2020/12/14 00:07:41;;;;;;;13.45;7.40;;;;;;;1.45;90.51;97084.88;1833243;78;20969;-74
2020/12/14 00:10:09;;;;;;;13.65;7.65;;;;;;;1.45;90.44;97092.56;1833318;78;21315;-73
2020/12/14 00:12:36;;;;;;;13.08;6.90;;;;;;;1.41;90.27;97085.50;1833315;78;21296;-74
2020/12/14 00:15:04;;;;;;;14.73;7.12;;;;;;;1.37;90.28;97087.37;1833185;78;20937;-73
2020/12/14 00:17:33;;;;;;;14.15;6.85;;;;;;;1.32;90.21;97095.72;1827717;78;21320;-73
2020/12/14 00:20:00;;;;;;;15.43;6.92;;;;;;;1.28;90.41;97097.25;1821372;78;20957;-73
2020/12/14 00:22:32;;;;;;;14.00;7.67;;;;;;;1.27;90.63;97100.27;1821361;78;21451;-73
2020/12/14 00:25:00;;;;;;;13.68;7.22;;;;;;;1.30;90.68;97098.82;1821466;78;21961;-73
2020/12/14 00:27:27;;;;;;;17.77;8.93;;;;;;;1.34;90.83;97103.36;1821273;78;21029;-74
2020/12/14 00:29:55;;;;;;;15.40;8.45;;;;;;;1.38;90.67;97101.00;1820803;78;20875;-74
2020/12/14 00:32:23;;;;;;;16.75;7.95;;;;;;;1.41;90.51;97100.87;1820738;78;21324;-74
2020/12/14 00:34:50;;;;;;;13.85;8.45;;;;;;;1.40;90.36;97105.13;1820784;78;20949;-74
2020/12/14 00:37:17;;;;;;;12.25;6.62;;;;;;;1.38;90.33;97108.23;1820725;78;21199;-74
2020/12/14 00:39:45;;;;;;;10.43;6.00;;;;;;;1.37;90.35;97110.42;1820814;78;20934;-74
2020/12/14 00:42:12;;;;;;;10.48;6.20;;;;;;;1.40;90.42;97120.52;1820859;78;20914;-74
2020/12/14 00:44:39;;;;;;;14.85;8.35;;;;;;;1.44;90.36;97116.08;1820821;78;21016;-74
2020/12/14 00:47:06;;;;;;;7.47;5.28;;;;;;;1.44;90.24;97112.69;1820894;78;20925;-74
2020/12/14 00:49:35;;;;;;;9.50;6.12;;;;;;;1.46;90.33;97113.44;1820750;78;21073;-73
2020/12/14 00:52:05;;;;;;;10.40;5.97;;;;;;;1.42;90.04;97111.49;1820725;78;21360;-74
2020/12/14 00:54:33;;;;;;;9.95;5.65;;;;;;;1.36;90.01;97116.91;1820767;78;20910;-74
2020/12/14 00:57:00;;;;;;;11.15;6.05;;;;;;;1.29;90.20;97114.27;1820728;78;20997;-74
2020/12/14 00:59:27;;;;;;;9.48;5.90;;;;;;;1.26;90.37;97113.16;1820851;78;20922;-74
2020/12/14 01:01:54;;;;;;;14.33;9.35;;;;;;;1.25;90.54;97116.17;1820764;78;21646;-74
2020/12/14 01:04:22;;;;;;;14.13;9.27;;;;;;;1.25;90.69;97117.45;1820813;78;20985;-74
2020/12/14 01:06:53;;;;;;;14.35;9.48;;;;;;;1.26;90.93;97113.98;1820734;78;20981;-74
2020/12/14 01:09:20;;;;;;;14.30;7.87;;;;;;;1.31;90.92;97115.84;1820810;78;20981;-73
2020/12/14 01:11:47;;;;;;;13.00;7.95;;;;;;;1.34;90.78;97117.45;1820873;78;21044;-74
2020/12/14 01:14:15;;;;;;;12.33;7.50;;;;;;;1.31;90.56;97119.69;1820684;78;21197;-75
2020/12/14 01:16:42;;;;;;;11.18;6.60;;;;;;;1.27;90.56;97114.81;1820653;78;21020;-74
2020/12/14 01:19:09;;;;;;;11.65;5.95;;;;;;;1.24;90.56;97113.23;1820699;78;20977;-74
2020/12/14 01:21:36;;;;;;;11.30;6.72;;;;;;;1.18;90.65;97117.38;1820705;78;20870;-74
2020/12/14 01:24:04;;;;;;;12.60;5.97;;;;;;;1.14;90.84;97120.97;1820784;78;20898;-74
2020/12/14 01:26:31;;;;;;;10.38;6.85;;;;;;;1.13;91.09;97122.70;1820721;78;21339;-74
2020/12/14 01:28:58;;;;;;;11.40;7.13;;;;;;;1.08;91.02;97120.84;1820728;78;21006;-75
2020/12/14 01:31:27;;;;;;;13.13;6.58;;;;;;;1.07;91.34;97124.73;1820799;78;20926;-74
2020/12/14 01:33:55;;;;;;;11.22;7.17;;;;;;;1.08;91.38;97124.69;1820824;78;20910;-74
2020/12/14 01:36:22;;;;;;;10.15;5.72;;;;;;;1.09;91.52;97123.78;1820727;78;21320;-74
2020/12/14 01:38:49;;;;;;;9.65;6.00;;;;;;;1.12;91.49;97127.45;1820724;78;21195;-74
2020/12/14 01:41:17;;;;;;;10.60;6.20;;;;;;;1.14;91.56;97124.81;1820666;78;20930;-74
2020/12/14 01:43:44;;;;;;;9.65;6.75;;;;;;;1.15;91.58;97129.03;1820678;78;21429;-74
2020/12/14 01:46:11;;;;;;;7.95;5.70;;;;;;;1.16;91.51;97124.31;1820709;78;20981;-74
2020/12/14 01:48:38;;;;;;;8.90;5.50;;;;;;;1.15;91.40;97126.47;1820772;78;20966;-74
2020/12/14 01:51:05;;;;;;;8.65;4.92;;;;;;;1.15;91.52;97126.47;1820769;78;21437;-74
2020/12/14 01:53:33;;;;;;;7.07;4.83;;;;;;;1.14;91.52;97122.25;1820688;78;21328;-74
2020/12/14 01:56:00;;;;;;;8.95;5.72;;;;;;;1.16;91.54;97124.73;1820781;78;21359;-74
2020/12/14 01:58:27;;;;;;;8.05;4.75;;;;;;;1.18;91.55;97127.63;1795844;78;20922;-74
2020/12/14 02:00:54;;;;;;;9.15;5.45;;;;;;;1.20;91.55;97130.93;1820777;78;21317;-74
2020/12/14 02:03:22;;;;;;;7.33;4.95;;;;;;;1.21;91.54;97128.73;1820715;78;21139;-74
2020/12/14 02:05:49;;;;;;;12.47;6.40;;;;;;;1.20;91.42;97133.48;1820659;78;20970;-74
2020/12/14 02:08:16;;;;;;;14.58;6.80;;;;;;;1.17;91.40;97140.05;1820808;78;20925;-74
2020/12/14 02:10:45;;;;;;;12.60;6.67;;;;;;;1.12;91.36;97136.88;1820686;78;20878;-74
2020/12/14 02:13:12;;;;;;;10.72;5.92;;;;;;;1.06;91.40;97145.67;1820811;78;20910;-74
2020/12/14 02:15:39;;;;;;;12.15;6.20;;;;;;;1.07;91.63;97145.22;1820799;78;21899;-74
2020/12/14 02:18:06;;;;;;;9.00;5.60;;;;;;;1.09;91.77;97149.84;1825756;78;20937;-74
2020/12/14 02:20:34;;;;;;;12.10;6.30;;;;;;;1.12;91.91;97149.68;1832624;78;20909;-74
2020/12/14 02:23:01;;;;;;;9.73;6.05;;;;;;;1.15;91.97;97150.80;1832625;78;20993;-74
2020/12/14 02:25:28;;;;;;;11.63;6.65;;;;;;;1.19;91.86;97152.33;1832622;78;21020;-74
2020/12/14 02:27:55;;;;;;;13.13;7.33;;;;;;;1.22;91.77;97157.29;1832607;78;21328;-74
2020/12/14 02:30:22;;;;;;;12.68;7.12;;;;;;;1.23;91.53;97158.12;1832549;78;20948;-74
2020/12/14 02:32:50;;;;;;;15.08;7.08;;;;;;;1.20;91.41;97159.11;1832573;78;20941;-74
2020/12/14 02:35:17;;;;;;;12.55;7.50;;;;;;;1.18;91.46;97158.36;1832596;78;20930;-74
2020/12/14 02:37:44;;;;;;;15.70;9.50;;;;;;;1.22;91.60;97162.87;1832515;78;20917;-74
2020/12/14 02:40:11;;;;;;;16.27;10.60;;;;;;;1.25;91.68;97164.02;1832581;78;21786;-74
2020/12/14 02:42:38;;;;;;;19.52;12.95;;;;;;;1.31;91.62;97166.27;1816575;79;21013;-74
2020/12/14 02:45:05;;;;;;;18.90;14.13;;;;;;;1.31;91.29;97170.10;1815521;79;20906;-74
2020/12/14 02:47:32;;;;;;;17.12;10.80;;;;;;;1.30;91.25;97174.85;1816635;79;20908;-74
2020/12/14 02:50:00;;;;;;;14.38;8.20;;;;;;;1.28;91.23;97168.98;1815552;79;21395;-74
2020/12/14 02:52:27;;;;;;;12.15;8.03;;;;;;;1.29;91.19;97171.92;1832817;78;21252;-74
2020/12/14 02:54:54;;;;;;;8.90;6.22;;;;;;;1.28;91.27;97172.83;1849942;77;20926;-74
2020/12/14 02:57:21;;;;;;;11.45;6.83;;;;;;;1.29;91.30;97176.59;1815457;79;21005;-74
2020/12/14 02:59:48;;;;;;;11.10;6.28;;;;;;;1.29;91.31;97175.31;1832831;78;20981;-74
2020/12/14 03:02:16;;;;;;;10.48;6.33;;;;;;;1.32;91.30;97176.43;1849972;77;20895;-74
2020/12/14 03:04:43;;;;;;;11.78;6.25;;;;;;;1.34;91.24;97180.22;1815476;79;21195;-74
2020/12/14 03:07:10;;;;;;;13.85;7.25;;;;;;;1.33;91.04;97187.08;1832772;78;21087;-74
2020/12/14 03:09:37;;;;;;;12.18;6.53;;;;;;;1.28;90.91;97178.78;1847588;77;21017;-74
2020/12/14 03:12:05;;;;;;;12.55;6.03;;;;;;;1.26;90.96;97179.77;1832825;78;20910;-74
2020/12/14 03:14:32;;;;;;;9.80;5.95;;;;;;;1.25;91.16;97184.52;1832582;78;20988;-74
2020/12/14 03:17:00;;;;;;;10.97;6.40;;;;;;;1.27;91.31;97183.98;1832625;78;21985;-74
2020/12/14 03:19:28;;;;;;;9.95;5.50;;;;;;;1.30;91.33;97189.77;1832344;78;21029;-74
2020/12/14 03:21:55;;;;;;;9.20;5.60;;;;;;;1.34;91.17;97193.03;1832647;78;20925;-74
2020/12/14 03:24:23;;;;;;;12.27;5.93;;;;;;;1.36;91.06;97195.06;1832511;78;20933;-74
2020/12/14 03:26:50;;;;;;;10.93;6.07;;;;;;;1.37;90.92;97196.27;1832584;78;20988;-74
2020/12/14 03:29:18;;;;;;;10.75;6.00;;;;;;;1.35;90.81;97196.80;1832553;78;21449;-74
2020/12/14 03:31:45;;;;;;;11.18;6.17;;;;;;;1.35;90.86;97194.69;1832421;78;21316;-74
2020/12/14 03:34:13;;;;;;;12.15;6.35;;;;;;;1.32;90.79;97196.92;1832561;78;21418;-74
2020/12/14 03:36:41;;;;;;;11.83;6.73;;;;;;;1.32;90.96;97202.05;1832511;78;20977;-74
2020/12/14 03:39:08;;;;;;;13.58;6.90;;;;;;;1.36;91.00;97200.19;1832613;78;21155;-74
2020/12/14 03:41:35;;;;;;;12.68;7.45;;;;;;;1.37;90.92;97207.80;1832647;78;21999;-74
2020/12/14 03:44:02;;;;;;;15.13;7.60;;;;;;;1.37;90.86;97211.64;1832433;78;20941;-74
2020/12/14 03:46:34;;;;;;;12.73;7.65;;;;;;;1.37;90.89;97208.25;1832609;78;21007;-74
2020/12/14 03:49:01;;;;;;;17.77;8.77;;;;;;;1.35;90.82;97203.20;1832554;78;20921;-83
2020/12/14 03:51:30;;;;;;;12.55;6.75;;;;;;;1.33;90.80;97211.42;1832554;78;21000;-83
2020/12/14 03:53:57;;;;;;;14.98;7.30;;;;;;;1.30;90.94;97206.42;1832662;78;21183;-82
2020/12/14 03:56:24;;;;;;;13.18;6.60;;;;;;;1.28;91.19;97212.08;1832582;78;20921;-82
2020/12/14 03:58:52;;;;;;;12.68;6.67;;;;;;;1.30;91.36;97216.67;1832575;78;20973;-82
2020/12/14 04:01:22;;;;;;;13.45;6.78;;;;;;;1.33;91.37;97211.87;1832510;78;21102;-82
2020/12/14 04:03:50;;;;;;;13.88;6.92;;;;;;;1.35;91.40;97213.91;1832754;78;20952;-82
2020/12/14 04:06:20;;;;;;;15.25;7.70;;;;;;;1.34;91.28;97214.36;1832819;78;21971;-83
2020/12/14 04:08:48;;;;;;;14.00;7.03;;;;;;;1.33;91.28;97217.83;1832681;78;21032;-82
2020/12/14 04:11:16;;;;;;;11.53;6.37;;;;;;;1.33;91.33;97220.39;1832730;78;20909;-83
2020/12/14 04:13:43;;;;;;;13.10;6.93;;;;;;;1.36;91.34;97220.69;1832724;78;21040;-83
2020/12/14 04:16:10;;;;;;;13.38;7.15;;;;;;;1.37;91.26;97223.62;1832745;78;20974;-83
2020/12/14 04:18:37;;;;;;;15.48;7.72;;;;;;;1.37;91.31;97230.85;1832618;78;21619;-83
2020/12/14 04:21:05;;;;;;;14.85;7.33;;;;;;;1.42;91.26;97233.66;1832756;78;20949;-83
2020/12/14 04:23:32;;;;;;;13.18;7.12;;;;;;;1.44;91.22;97233.13;1832699;78;20989;-83
2020/12/14 04:25:59;;;;;;;13.43;7.33;;;;;;;1.44;91.11;97232.67;1832740;78;20984;-83
2020/12/14 04:28:26;;;;;;;15.13;6.58;;;;;;;1.43;90.99;97235.32;1832808;78;20909;-83
2020/12/14 04:30:53;;;;;;;10.82;5.90;;;;;;;1.41;90.95;97235.40;1832823;78;22044;-83
2020/12/14 04:33:21;;;;;;;10.93;6.12;;;;;;;1.39;91.02;97235.90;1832766;78;20993;-83
2020/12/14 04:35:48;;;;;;;11.50;6.90;;;;;;;1.39;91.13;97240.57;1832712;78;21044;-83
2020/12/14 04:38:16;;;;;;;11.75;7.08;;;;;;;1.40;91.20;97235.82;1832654;78;20927;-83
2020/12/14 04:40:43;;;;;;;14.40;8.53;;;;;;;1.40;91.12;97243.51;1832781;78;20910;-83
2020/12/14 04:43:10;;;;;;;15.38;7.95;;;;;;;1.40;91.04;97240.95;1832644;78;21195;-74
2020/12/14 04:45:37;;;;;;;14.35;6.95;;;;;;;1.41;90.99;97240.52;1832626;78;20929;-73
2020/12/14 04:48:05;;;;;;;11.75;6.15;;;;;;;1.40;90.96;97243.51;1832752;78;20922;-74
2020/12/14 04:50:32;;;;;;;11.38;5.85;;;;;;;1.40;90.86;97251.65;1832715;78;20929;-74
2020/12/14 04:53:03;;;;;;;12.55;6.33;;;;;;;1.38;90.88;97254.29;1802714;78;21139;-73
2020/12/14 04:55:34;;;;;;;14.63;6.62;;;;;;;1.39;90.96;97258.51;1832751;78;22123;-73
2020/12/14 04:58:01;;;;;;;12.00;5.92;;;;;;;1.44;91.05;97254.91;1832578;78;21407;-74
2020/12/14 05:00:28;;;;;;;12.58;6.70;;;;;;;1.49;91.05;97260.62;1776804;78;21000;-74
2020/12/14 05:02:56;;;;;;;11.67;6.13;;;;;;;1.52;90.82;97261.78;1832638;78;21273;-74
2020/12/14 05:05:25;;;;;;;13.72;6.15;;;;;;;1.53;90.68;97262.16;1832698;78;21304;-74
2020/12/14 05:07:52;;;;;;;8.70;5.47;;;;;;;1.53;90.66;97269.39;1832236;78;21214;-73
2020/12/14 05:10:24;;;;;;;11.03;5.40;;;;;;;1.52;90.55;97267.73;1832647;78;21008;-74
2020/12/14 05:12:52;;;;;;;10.00;5.37;;;;;;;1.52;90.48;97269.47;1832644;78;20976;-73
2020/12/14 05:15:28;;;;;;;10.70;6.10;;;;;;;1.53;90.47;97273.69;1832677;78;20973;-73
2020/12/14 05:18:14;;;;;;;9.83;5.42;;;;;;;1.54;90.57;97268.94;1831849;78;20937;-74
2020/12/14 05:20:42;;;;;;;10.15;6.10;;;;;;;1.56;90.57;97273.08;1832642;78;21185;-74
2020/12/14 05:23:10;;;;;;;9.20;5.80;;;;;;;1.60;90.48;97273.32;1832594;78;20969;-74
2020/12/14 05:25:38;;;;;;;7.40;4.95;;;;;;;1.61;90.30;97283.12;1832587;78;21056;-74
2020/12/14 05:28:16;;;;;;;9.45;5.47;;;;;;;1.61;90.18;97285.69;1832624;78;20893;-74
2020/12/14 05:30:46;;;;;;;9.83;5.53;;;;;;;1.59;90.01;97287.50;1832656;78;20906;-74
2020/12/14 05:33:17;;;;;;;8.10;5.05;;;;;;;1.58;90.02;97291.80;1832670;78;21256;-74
2020/12/14 05:35:45;;;;;;;9.85;5.85;;;;;;;1.56;90.02;97286.34;1832572;78;20937;-74
2020/12/14 05:38:30;;;;;;;9.58;5.70;;;;;;;1.56;90.04;97288.91;1832592;78;21406;-75
2020/12/14 05:41:01;;;;;;;9.63;5.33;;;;;;;1.56;90.11;97281.22;1832568;78;20976;-74
2020/12/14 05:43:32;;;;;;;11.70;6.45;;;;;;;1.59;90.05;97287.50;1832626;78;21048;-73
2020/12/14 05:46:15;;;;;;;12.13;6.60;;;;;;;1.59;89.94;97288.78;1802482;78;21930;-72
2020/12/14 05:48:42;;;;;;;13.78;7.35;;;;;;;1.57;89.87;97294.41;1803935;78;21558;-73
2020/12/14 05:51:11;;;;;;;11.63;6.65;;;;;;;1.51;89.84;97298.12;1808490;78;21004;-73
2020/12/14 05:53:41;;;;;;;12.33;7.08;;;;;;;1.48;89.97;97299.52;1795667;78;21124;-73
2020/12/14 05:56:09;;;;;;;13.43;7.35;;;;;;;1.48;90.14;97305.10;1801798;78;21537;-73
2020/12/14 05:58:37;;;;;;;13.88;7.28;;;;;;;1.47;90.12;97308.12;1802207;78;21196;-78
2020/12/14 06:01:07;;;;;;;18.93;9.30;;;;;;;1.46;90.24;97311.59;1810310;78;20949;-87
2020/12/14 06:03:35;;;;;;;17.07;9.00;;;;;;;1.46;90.30;97313.32;1783824;79;20911;-84
2020/12/14 06:06:13;;;;;;;17.05;9.28;;;;;;;1.44;90.33;97322.82;1804695;78;21114;-80
2020/12/14 06:08:48;;;;;;;15.60;9.20;;;;;;;1.44;90.52;97325.38;1810710;77;21174;-80
2020/12/14 06:11:17;;;;;;;16.00;9.15;;;;;;;1.44;90.52;97330.05;1823717;76;21856;-81
2020/12/14 06:13:56;;;;;;;14.37;8.20;;;;;;;1.46;90.47;97336.38;1822129;76;21048;-81
2020/12/14 06:16:26;;;;;;;13.20;7.62;;;;;;;1.45;90.62;97339.86;1806154;78;21109;-77
2020/12/14 06:18:55;;;;;;;18.60;9.08;;;;;;;1.46;90.65;97345.36;1804257;78;21456;-82
2020/12/14 06:21:45;;;;;;;18.02;8.88;;;;;;;1.47;90.73;97350.86;1801119;78;21083;-81
2020/12/14 06:24:20;;;;;;;20.97;8.80;;;;;;;1.49;90.60;97347.34;1800426;78;21375;-79
2020/12/14 06:26:48;;;;;;;24.55;10.10;;;;;;;1.50;90.59;97352.02;1809551;78;21067;-83
2020/12/14 06:29:36;;;;;;;17.25;8.80;;;;;;;1.46;90.42;97347.47;1806843;78;21852;-85
2020/12/14 06:32:03;;;;;;;16.82;7.75;;;;;;;1.44;90.49;97349.73;1797102;78;21175;-81
2020/12/14 06:34:37;;;;;;;14.18;7.40;;;;;;;1.40;90.41;97356.26;1800754;79;21169;-84
2020/12/14 06:37:05;;;;;;;16.60;7.97;;;;;;;1.40;90.64;97351.58;1802146;78;21696;-86
2020/12/14 06:39:41;;;;;;;15.55;8.55;;;;;;;1.40;90.75;97348.57;1798784;78;21163;-81
2020/12/14 06:42:19;;;;;;;19.05;9.03;;;;;;;1.45;90.91;97345.81;1783665;79;21158;-81
2020/12/14 06:44:50;;;;;;;;;;;;;;;1.50;90.78;97352.02;1786624;80;21163;-85
2020/12/14 06:47:18;;;;;;;14.43;7.80;;;;;;;1.51;90.56;97343.42;1768133;80;20258;-82
2020/12/14 06:49:47;;;;;;;17.60;8.50;;;;;;;1.49;90.53;97349.05;1809962;78;22146;-86
2020/12/14 06:52:37;;;;;;;18.45;8.73;;;;;;;1.45;90.44;97349.66;1781887;80;21159;-87
2020/12/14 06:55:04;;;;;;;18.70;9.05;;;;;;;1.43;90.49;97354.48;1773208;79;21113;-83
2020/12/14 06:57:38;;;;;;;19.82;9.33;;;;;;;1.42;90.68;97352.82;1778172;79;21249;-86
2020/12/14 07:00:07;;;;;;;17.62;9.55;;;;;;;1.45;90.75;97358.63;1787566;79;21145;-84
2020/12/14 07:02:42;;;;;;;16.52;8.45;;;;;;;1.49;90.78;97359.30;1774634;80;21540;-88
2020/12/14 07:05:32;;;;;;;17.27;9.17;;;;;;;1.54;90.67;97363.77;1779350;80;21534;-83
2020/12/14 07:07:59;;;;;;;14.98;7.40;;;;;;;1.56;90.59;97362.79;1784655;79;21152;-83
2020/12/14 07:10:28;;;;;;;11.88;7.40;;;;;;;1.60;90.39;97363.49;1778907;79;21209;-84
2020/12/14 07:12:57;;;;;;;13.55;7.60;;;;;;;1.59;90.13;97366.97;1792755;78;21177;-82
2020/12/14 07:15:32;;;;;;;15.00;7.95;;;;;;;1.58;90.08;97371.27;1754003;80;21490;-87
2020/12/14 07:18:03;;;;;;;22.05;9.20;;;;;;;1.60;90.00;97373.75;1801138;79;21132;-82
2020/12/14 07:20:31;;;;;;;20.60;8.55;;;;;;;1.61;90.02;97375.41;1814491;78;21523;-82
2020/12/14 07:23:07;;;;;;;16.30;8.88;;;;;;;1.64;90.07;97378.64;1842786;77;21115;-80
2020/12/14 07:25:34;;;;;;;18.27;9.18;;;;;;;1.67;89.98;97372.11;1847147;77;21116;-79
2020/12/14 07:28:03;;;;;;;18.80;10.15;;;;;;;1.71;89.86;97377.91;1838880;77;21748;-83
2020/12/14 07:30:30;;;;;;;19.15;9.65;;;;;;;1.71;89.81;97375.34;1824130;76;21414;-82
2020/12/14 07:32:59;;;;;;;17.73;10.03;;;;;;;1.71;89.72;97380.47;1828012;76;21124;-81
2020/12/14 07:35:30;;;;;;;15.15;8.75;;;;;;;1.68;89.71;97382.73;1822812;78;21190;-78
2020/12/14 07:37:57;;;;;;;19.82;10.72;;;;;;;1.66;89.60;97380.70;1816787;78;21040;-81
2020/12/14 07:40:24;;;;;;;16.40;9.65;;;;;;;1.65;89.67;97384.14;1818669;77;22022;-78
2020/12/14 07:42:51;;;;;;;21.87;11.57;;;;;;;1.68;89.85;97384.02;1781226;79;21162;-79
2020/12/14 07:45:21;;;;;;;18.40;8.75;;;;;;;1.72;89.98;97391.56;1797747;79;21479;-78
2020/12/14 07:47:51;;;;;;;20.17;9.88;;;;;;;1.79;90.04;97404.02;1793866;79;21136;-78
2020/12/14 07:50:23;;;;;;;19.23;10.10;;;;;;;1.84;89.72;97407.21;1806801;78;21522;-74
2020/12/14 07:53:03;;;;;;;17.50;9.00;;;;;;;1.85;89.54;97414.00;1803165;78;22213;-77
2020/12/14 07:55:43;;;;;;;17.05;9.13;;;;;;;1.83;89.34;97412.42;1813851;78;21151;-77
2020/12/14 07:58:11;;;;;;;21.05;11.20;;;;;;;1.77;89.21;97415.27;1804882;78;21151;-79
2020/12/14 08:00:38;;;;;;;26.68;14.10;;;;;;;1.75;89.39;97415.34;1804244;78;21177;-77
2020/12/14 08:03:07;;;;;;;22.60;14.38;;;;;;;1.76;89.58;97416.17;1823086;77;21119;-80
2020/12/14 08:05:34;;;;;;;21.73;12.90;;;;;;;1.75;89.57;97418.36;1783234;79;21317;-78
2020/12/14 08:08:04;;;;;;;22.65;12.88;;;;;;;1.74;89.94;97421.38;1815422;78;21585;-81
2020/12/14 08:10:37;;;;;;;17.87;11.55;;;;;;;1.73;89.84;97427.38;1813413;79;21420;-79
2020/12/14 08:13:04;;;;;;;25.43;12.40;;;;;;;1.74;89.80;97427.78;1821979;77;21127;-80
2020/12/14 08:15:31;;;;;;;22.22;11.75;;;;;;;1.75;89.72;97438.41;1818774;77;21130;-80
2020/12/14 08:17:59;;;;;;;20.12;11.10;;;;;;;1.76;89.49;97440.08;1798452;79;21638;-80
2020/12/14 08:20:33;;;;;;;18.82;9.98;;;;;;;1.75;89.41;97440.16;1804949;78;21167;-81
2020/12/14 08:23:02;;;;;;;19.98;10.68;;;;;;;1.74;89.40;97441.88;1800948;78;21458;-79
2020/12/14 08:25:31;;;;;;;15.58;9.13;;;;;;;1.74;89.55;97442.30;1806676;79;21144;-77
2020/12/14 08:28:02;;;;;;;16.40;9.25;;;;;;;1.73;89.62;97437.63;1829582;77;21159;-74
2020/12/14 08:30:31;;;;;;;18.80;11.08;;;;;;;1.72;89.51;97439.81;1803040;79;21148;-80
2020/12/14 08:33:17;;;;;;;17.45;9.68;;;;;;;1.70;89.36;97440.34;1802721;78;21578;-78
2020/12/14 08:35:59;;;;;;;18.77;10.75;;;;;;;1.66;89.52;97449.92;1799502;79;21179;-82
2020/12/14 08:38:27;;;;;;;17.35;10.70;;;;;;;1.65;89.79;97449.97;1799662;79;21179;-79
2020/12/14 08:41:04;;;;;;;24.75;12.05;;;;;;;1.63;89.80;97451.33;1801112;78;20925;-78
2020/12/14 08:43:35;;;;;;;19.85;10.38;;;;;;;1.61;90.05;97450.58;1823974;77;21376;-76
2020/12/14 08:46:16;;;;;;;;;;;;;;;1.59;90.27;97456.23;1810860;78;21138;-77
2020/12/14 08:48:56;;;;;;;21.37;11.18;;;;;;;1.53;90.29;97455.66;1790030;79;20260;-75
2020/12/14 08:51:26;;;;;;;20.95;10.55;;;;;;;1.47;90.38;97459.33;1774418;79;21059;-83
2020/12/14 08:54:02;;;;;;;22.95;11.53;;;;;;;1.42;90.62;97461.73;1824810;78;21025;-79
2020/12/14 08:56:32;;;;;;;22.00;10.35;;;;;;;1.35;90.68;97460.72;1820443;77;21359;-82
2020/12/14 08:59:25;;;;;;;;;;;;;;;;;;;;;
2020/12/14 09:02:14;;;;;;;23.00;11.63;;;;;;;1.32;91.30;97464.67;1800666;79;21017;-78
2020/12/14 09:05:04;;;;;;;;;;;;;;;1.31;91.74;97469.42;1758923;78;21095;-85
2020/12/14 09:07:42;;;;;;;23.57;11.27;;;;;;;1.35;91.88;97475.27;1787521;78;20279;-80
2020/12/14 09:13:15;;;;;;;22.50;13.97;;;;;;;1.48;91.90;97470.41;1832008;75;27844;-81
2020/12/14 09:15:53;;;;;;;23.40;12.65;;;;;;;1.51;91.67;97473.69;1848173;76;21012;-82
2020/12/14 09:18:21;;;;;;;20.70;11.25;;;;;;;1.60;91.48;97471.16;1840553;76;21186;-85
2020/12/14 09:20:52;;;;;;;20.25;11.55;;;;;;;1.64;91.30;97467.09;1802696;79;21034;-78
2020/12/14 09:23:21;;;;;;;20.45;10.95;;;;;;;1.67;91.18;97461.84;1738735;80;21193;-82
2020/12/14 09:25:50;;;;;;;22.40;12.50;;;;;;;1.70;91.03;97460.86;1780961;79;21016;-80
2020/12/14 09:28:18;;;;;;;19.42;10.43;;;;;;;1.74;90.93;97459.83;1763145;80;21457;-79
2020/12/14 09:30:45;;;;;;;20.62;10.50;;;;;;;1.79;90.89;97460.89;1766409;79;21461;-83
2020/12/14 09:33:12;;;;;;;22.02;12.15;;;;;;;1.80;90.46;97459.53;1779082;79;21004;-82
2020/12/14 09:35:40;;;;;;;19.32;9.68;;;;;;;1.78;90.26;97461.34;1783436;79;21025;-83
2020/12/14 09:38:07;;;;;;;16.70;9.50;;;;;;;1.76;90.31;97459.76;1785377;79;21183;-79
2020/12/14 09:40:35;;;;;;;17.37;9.50;;;;;;;1.77;90.51;97462.24;1794082;78;20982;-85
2020/12/14 09:43:02;;;;;;;17.35;9.13;;;;;;;1.78;90.39;97465.19;1773091;79;21357;-80
2020/12/14 09:45:29;;;;;;;15.45;8.45;;;;;;;1.80;90.62;97462.55;1772933;79;21052;-79
2020/12/14 09:47:58;;;;;;;18.32;9.78;;;;;;;1.83;90.25;97470.12;1797123;79;21059;-82
2020/12/14 09:50:27;;;;;;;16.93;9.70;;;;;;;1.79;90.14;97473.70;1774799;79;21494;-79
2020/12/14 09:52:56;;;;;;;17.67;8.85;;;;;;;1.76;90.20;97475.14;1758560;79;21070;-78
2020/12/14 09:55:24;;;;;;;20.55;9.43;;;;;;;1.75;90.25;97474.77;1756498;79;21176;-78
2020/12/14 09:57:53;;;;;;;19.48;10.23;;;;;;;1.69;89.97;97475.86;1759102;79;21011;-83
2020/12/14 10:00:21;;;;;;;17.43;9.13;;;;;;;1.64;90.14;97476.05;1764672;79;21147;-84
2020/12/14 10:03:02;;;;;;;13.43;8.30;;;;;;;1.63;90.42;97473.12;1771175;79;21143;-81
2020/12/14 10:05:47;;;;;;;16.65;9.48;;;;;;;1.66;90.55;97476.84;1777766;79;21478;-83
2020/12/14 10:08:20;;;;;;;16.75;9.85;;;;;;;1.69;90.40;97479.26;1813655;78;21061;-82
2020/12/14 10:10:51;;;;;;;16.52;9.73;;;;;;;1.72;90.45;97475.72;1780864;78;21155;-80
2020/12/14 10:13:31;;;;;;;16.17;9.43;;;;;;;1.75;90.39;97478.16;1736433;81;21154;-81
2020/12/14 10:15:59;;;;;;;15.60;9.10;;;;;;;1.77;90.21;97477.63;1773230;81;21166;-80
2020/12/14 10:18:39;;;;;;;18.03;9.80;;;;;;;1.80;90.26;97483.89;1741518;82;21599;-83
2020/12/14 10:21:09;;;;;;;18.80;9.90;;;;;;;1.81;90.19;97484.27;1751259;81;21466;-81
2020/12/14 10:23:36;;;;;;;18.90;10.20;;;;;;;1.84;90.30;97482.03;1759291;80;21030;-81
2020/12/14 10:26:04;;;;;;;17.67;9.58;;;;;;;1.87;90.43;97489.12;1772525;81;21034;-81
2020/12/14 10:28:32;;;;;;;18.67;8.70;;;;;;;1.93;90.40;97482.89;1772749;81;21005;-79
2020/12/14 10:31:00;;;;;;;15.32;8.58;;;;;;;1.97;89.85;97483.94;1773551;81;20997;-88
2020/12/14 10:33:30;;;;;;;16.02;8.45;;;;;;;1.94;89.51;97485.37;1795819;79;21183;-86
2020/12/14 10:36:09;;;;;;;19.90;9.65;;;;;;;1.88;89.36;97480.98;1769244;80;21169;-82
2020/12/14 10:38:36;;;;;;;18.37;9.23;;;;;;;1.86;89.69;97481.05;1754997;80;21120;-82
2020/12/14 10:41:04;;;;;;;17.65;10.28;;;;;;;1.85;89.56;97478.56;1760244;80;21188;-83
2020/12/14 10:43:31;;;;;;;16.77;10.23;;;;;;;1.84;89.60;97471.33;1760401;79;21219;-81
2020/12/14 10:45:59;;;;;;;16.17;8.95;;;;;;;1.81;89.49;97479.59;1780296;80;21215;-82
2020/12/14 10:48:26;;;;;;;15.55;8.10;;;;;;;1.79;89.56;97479.66;1775974;80;21138;-84
2020/12/14 10:50:55;;;;;;;17.55;9.60;;;;;;;1.77;89.42;97481.48;1767775;80;21156;-80
2020/12/14 10:53:22;;;;;;;14.10;7.35;;;;;;;1.72;89.62;97482.12;1776003;79;21148;-81
2020/12/14 10:55:50;;;;;;;15.50;8.73;;;;;;;1.64;89.60;97479.91;1773116;79;21151;-78
2020/12/14 10:58:17;;;;;;;15.72;8.45;;;;;;;1.60;89.91;97485.25;1774681;80;22124;-83
2020/12/14 11:00:45;;;;;;;18.77;8.35;;;;;;;1.62;90.49;97483.45;1766560;80;21161;-80
2020/12/14 11:03:13;;;;;;;21.48;10.30;;;;;;;1.65;90.50;97488.42;1779194;80;21136;-79
2020/12/14 11:05:42;;;;;;;20.27;11.60;;;;;;;1.63;90.44;97485.94;1768712;79;21548;-81
2020/12/14 11:08:11;;;;;;;26.05;13.58;;;;;;;1.65;90.62;97484.13;1759801;81;21263;-82
2020/12/14 11:10:39;;;;;;;27.98;13.85;;;;;;;1.69;90.65;97484.84;1792073;79;21206;-79
2020/12/14 11:13:06;;;;;;;27.65;14.07;;;;;;;1.74;90.67;97479.48;1795201;79;21148;-81
2020/12/14 11:15:34;;;;;;;20.40;10.98;;;;;;;1.79;90.52;97482.23;1785676;80;21144;-82
2020/12/14 11:18:01;;;;;;;16.80;9.25;;;;;;;1.86;90.41;97484.90;1771549;80;21107;-80
2020/12/14 11:20:28;;;;;;;18.98;9.55;;;;;;;1.88;89.94;97485.66;1774941;80;21582;-79
2020/12/14 11:22:55;;;;;;;14.33;8.38;;;;;;;1.90;89.93;97485.58;1783566;79;21547;-82
2020/12/14 11:25:23;;;;;;;17.98;8.90;;;;;;;1.95;90.08;97486.20;1784506;79;21150;-82
2020/12/14 11:27:52;;;;;;;17.35;8.73;;;;;;;2.00;90.07;97487.30;1775601;79;21704;-77
2020/12/14 11:30:19;;;;;;;16.93;9.20;;;;;;;2.02;89.62;97490.61;1780351;79;21168;-79
2020/12/14 11:32:47;;;;;;;25.97;15.75;;;;;;;2.02;89.28;97494.00;1766483;81;21096;-78
2020/12/14 11:35:14;;;;;;;19.23;9.63;;;;;;;1.99;89.19;97489.03;1773598;79;21807;-74
2020/12/14 11:37:42;;;;;;;16.87;8.50;;;;;;;1.99;89.03;97491.59;1779650;78;21293;-82
2020/12/14 11:40:10;;;;;;;18.60;9.65;;;;;;;1.94;89.22;97489.22;1774346;80;21171;-80
2020/12/14 11:42:38;;;;;;;15.68;9.05;;;;;;;1.92;89.37;97490.20;1776767;79;21144;-77
2020/12/14 11:45:09;;;;;;;16.20;8.63;;;;;;;1.92;89.33;97492.77;1854760;77;20961;-78
2020/12/14 11:47:36;;;;;;;17.00;9.38;;;;;;;1.88;89.40;97483.09;1848725;77;21964;-80